createdAt,value
2023-01-29T00:00:20.409Z,103058.38
2023-01-29T00:02:48.991Z,103054.84
2023-01-29T00:05:27.372Z,103056.66
2023-01-29T00:07:57.373Z,103044.28
2023-01-29T00:10:27.057Z,103045.09
2023-01-29T00:12:56.181Z,103042.41
2023-01-29T00:15:26.445Z,103044.09
2023-01-29T00:17:54.881Z,103047.00
2023-01-29T00:20:23.439Z,103052.16
2023-01-29T00:22:52.215Z,103053.06
2023-01-29T00:25:21.026Z,103040.59
2023-01-29T00:27:54.072Z,103040.53
2023-01-29T00:30:28.597Z,103036.25
2023-01-29T00:32:58.444Z,103031.72
2023-01-29T00:35:27.267Z,103029.84
2023-01-29T00:37:57.827Z,103036.09
2023-01-29T00:40:29.649Z,103029.97
2023-01-29T00:43:15.595Z,103032.63
2023-01-29T00:45:45.589Z,103025.47
2023-01-29T00:48:14.135Z,103016.69
2023-01-29T00:50:42.820Z,103018.41
2023-01-29T00:53:11.468Z,103014.03
2023-01-29T00:55:40.093Z,103017.53
2023-01-29T00:58:08.586Z,103002.53
2023-01-29T01:00:36.911Z,103010.56
2023-01-29T01:03:05.682Z,103011.38
2023-01-29T01:05:35.197Z,103015.84
2023-01-29T01:08:04.067Z,103011.38
2023-01-29T01:10:33.846Z,103015.75
2023-01-29T01:13:04.936Z,103022.91
2023-01-29T01:15:36.620Z,103027.31
2023-01-29T01:18:07.268Z,103036.25
2023-01-29T01:20:37.766Z,103031.81
2023-01-29T01:23:06.843Z,103024.72
2023-01-29T01:25:35.832Z,103027.41
2023-01-29T01:28:04.517Z,103025.59
2023-01-29T01:30:33.211Z,103023.81
2023-01-29T01:33:01.890Z,103019.50
2023-01-29T01:35:32.037Z,103010.50
2023-01-29T01:38:02.043Z,103018.47
2023-01-29T01:40:30.531Z,103017.69
2023-01-29T01:43:01.245Z,103029.16
2023-01-29T01:45:32.666Z,103023.75
2023-01-29T01:48:07.040Z,103022.97
2023-01-29T01:50:42.735Z,103014.94
2023-01-29T01:53:16.052Z,103014.03
2023-01-29T01:55:49.893Z,103014.94
2023-01-29T01:58:25.840Z,103015.81
2023-01-29T02:00:55.441Z,103031.81
2023-01-29T02:03:43.373Z,103016.69
2023-01-29T02:06:31.513Z,103022.94
2023-01-29T02:09:23.540Z,103022.00
2023-01-29T02:11:53.028Z,103018.47
2023-01-29T02:14:22.213Z,103013.09
2023-01-29T02:16:51.073Z,103022.88
2023-01-29T02:19:32.043Z,103042.44
2023-01-29T02:22:29.315Z,103039.84
2023-01-29T02:25:41.798Z,103036.25
2023-01-29T02:28:31.732Z,103046.84
2023-01-29T02:31:10.505Z,103042.41
2023-01-29T02:33:51.475Z,103046.00
2023-01-29T02:36:32.638Z,103032.63
2023-01-29T02:39:10.287Z,103035.34
2023-01-29T02:41:45.378Z,103022.03
2023-01-29T02:44:23.597Z,103037.03
2023-01-29T02:47:00.084Z,103034.47
2023-01-29T02:49:36.865Z,103030.06
2023-01-29T02:52:11.349Z,103031.78
2023-01-29T02:54:48.052Z,103014.94
2023-01-29T02:57:22.855Z,103023.03
2023-01-29T02:59:58.622Z,103011.41
2023-01-29T03:02:34.669Z,103011.47
2023-01-29T03:05:10.410Z,103010.47
2023-01-29T03:07:46.501Z,103006.94
2023-01-29T03:10:22.028Z,103013.22
2023-01-29T03:12:56.867Z,102995.44
2023-01-29T03:15:38.990Z,102996.41
2023-01-29T03:18:12.793Z,102991.84
2023-01-29T03:20:49.744Z,102984.88
2023-01-29T03:23:44.983Z,102974.13
2023-01-29T03:26:32.482Z,102970.59
2023-01-29T03:29:21.991Z,102975.97
2023-01-29T03:32:07.588Z,102966.19
2023-01-29T03:34:40.866Z,102971.44
2023-01-29T03:37:16.472Z,102965.25
2023-01-29T03:39:44.995Z,102967.97
2023-01-29T03:42:22.147Z,102963.50
2023-01-29T03:45:00.872Z,102967.03
2023-01-29T03:47:43.425Z,102961.75
2023-01-29T03:50:25.961Z,102954.69
2023-01-29T03:53:03.788Z,102948.31
2023-01-29T03:55:43.676Z,102954.69
2023-01-29T03:58:25.169Z,102959.16
2023-01-29T04:00:59.878Z,102952.09
2023-01-29T04:03:36.239Z,102947.69
2023-01-29T04:06:12.417Z,102952.00
2023-01-29T04:08:51.922Z,102949.44
2023-01-29T04:11:23.689Z,102951.94
2023-01-29T04:13:54.011Z,102944.91
2023-01-29T04:16:28.625Z,102936.03
2023-01-29T04:18:58.769Z,102941.31
2023-01-29T04:21:28.167Z,102942.16
2023-01-29T04:23:56.924Z,102937.75
2023-01-29T04:26:48.064Z,102942.28
2023-01-29T04:29:30.313Z,102936.97
2023-01-29T04:32:09.904Z,102930.78
2023-01-29T04:34:53.058Z,102931.72
2023-01-29T04:37:36.576Z,102932.53
2023-01-29T04:40:19.691Z,102927.13
2023-01-29T04:43:02.310Z,102911.16
2023-01-29T04:45:47.173Z,102910.25
2023-01-29T04:48:23.829Z,102914.69
2023-01-29T04:51:05.452Z,102899.53
2023-01-29T04:53:46.514Z,102903.97
2023-01-29T04:56:22.853Z,102901.53
2023-01-29T04:58:59.624Z,102903.28
2023-01-29T05:01:33.238Z,102906.88
2023-01-29T05:04:07.779Z,102896.19
2023-01-29T05:06:39.255Z,102899.63
2023-01-29T05:09:09.423Z,102905.13
2023-01-29T05:11:38.854Z,102902.31
2023-01-29T05:14:13.030Z,102918.19
2023-01-29T05:16:46.441Z,102916.47
2023-01-29T05:19:17.077Z,102907.50
2023-01-29T05:21:50.196Z,102912.13
2023-01-29T05:24:21.612Z,102908.56
2023-01-29T05:27:10.060Z,102911.22
2023-01-29T05:29:39.300Z,102908.63
2023-01-29T05:32:07.962Z,102918.38
2023-01-29T05:34:36.709Z,102917.34
2023-01-29T05:37:06.903Z,102913.84
2023-01-29T05:39:35.786Z,102917.38
2023-01-29T05:42:04.961Z,102912.13
2023-01-29T05:44:33.906Z,102899.63
2023-01-29T05:47:03.937Z,102886.44
2023-01-29T05:49:32.727Z,102899.75
2023-01-29T05:52:01.068Z,102887.22
2023-01-29T05:54:31.988Z,102879.31
2023-01-29T05:57:03.386Z,102867.69
2023-01-29T05:59:36.001Z,102865.03
2023-01-29T06:02:04.933Z,102865.13
2023-01-29T06:04:33.619Z,102862.63
2023-01-29T06:07:03.503Z,102856.34
2023-01-29T06:09:33.510Z,102855.56
2023-01-29T06:12:02.512Z,102849.38
2023-01-29T06:14:31.493Z,102858.19
2023-01-29T06:17:03.152Z,102857.25
2023-01-29T06:19:32.041Z,102859.72
2023-01-29T06:22:00.771Z,102850.03
2023-01-29T06:24:30.022Z,102844.88
2023-01-29T06:27:01.061Z,102839.41
2023-01-29T06:29:32.778Z,102846.53
2023-01-29T06:32:01.502Z,102852.75
2023-01-29T06:34:30.194Z,102853.59
2023-01-29T06:37:01.860Z,102845.81
2023-01-29T06:39:30.393Z,102844.72
2023-01-29T06:42:00.602Z,102848.41
2023-01-29T06:44:29.524Z,102846.59
2023-01-29T07:09:30.216Z,102835.88
2023-01-29T07:11:59.145Z,102829.72
2023-01-29T07:14:33.147Z,102828.03
2023-01-29T07:17:01.640Z,102835.97
2023-01-29T07:19:31.553Z,102847.50
2023-01-29T07:22:02.542Z,102844.78
2023-01-29T07:24:32.755Z,102850.94
2023-01-29T07:27:01.569Z,102832.34
2023-01-29T07:29:38.490Z,102844.66
2023-01-29T07:33:30.063Z,102836.81
2023-01-29T07:35:59.811Z,102832.41
2023-01-29T07:38:28.607Z,102827.06
2023-01-29T07:40:58.651Z,102823.53
2023-01-29T07:43:27.427Z,102814.66
2023-01-29T07:45:58.320Z,102810.22
2023-01-29T07:48:27.368Z,102815.78
2023-01-29T07:50:58.569Z,102816.47
2023-01-29T07:53:28.012Z,102808.47
2023-01-29T07:55:58.069Z,102810.16
2023-01-29T07:58:26.586Z,102811.06
2023-01-29T08:00:55.216Z,102804.13
2023-01-29T08:03:23.834Z,102799.75
2023-01-29T08:05:52.565Z,102808.22
2023-01-29T08:08:21.670Z,102807.47
2023-01-29T08:10:50.134Z,102799.63
2023-01-29T08:13:20.160Z,102802.25
2023-01-29T08:15:48.832Z,102810.06
2023-01-29T08:18:19.955Z,102802.09
2023-01-29T08:20:50.985Z,102802.94
2023-01-29T08:23:23.592Z,102796.72
2023-01-29T08:25:55.090Z,102793.31
2023-01-29T08:28:25.528Z,102785.28
2023-01-29T08:30:54.170Z,102779.31
2023-01-29T08:33:29.801Z,102782.06
2023-01-29T08:36:04.419Z,102786.13
2023-01-29T08:38:35.263Z,102783.59
2023-01-29T08:41:06.127Z,102781.44
2023-01-29T08:43:37.116Z,102782.69
2023-01-29T08:46:07.150Z,102786.25
2023-01-29T08:48:36.418Z,102780.09
2023-01-29T08:51:06.497Z,102773.75
2023-01-29T08:53:35.098Z,102763.06
2023-01-29T08:56:04.148Z,102773.75
2023-01-29T08:58:51.880Z,102764.72
2023-01-29T09:01:21.281Z,102764.53
2023-01-29T09:03:53.027Z,102764.75
2023-01-29T09:06:22.236Z,102762.44
2023-01-29T09:08:51.921Z,102755.91
2023-01-29T09:11:20.541Z,102757.47
2023-01-29T09:13:52.906Z,102761.34
2023-01-29T09:16:22.564Z,102764.31
2023-01-29T09:18:52.268Z,102764.53
2023-01-29T09:21:27.415Z,102757.16
2023-01-29T09:23:56.274Z,102756.28
2023-01-29T09:26:26.005Z,102754.91
2023-01-29T09:28:56.723Z,102751.09
2023-01-29T09:31:28.373Z,102757.16
2023-01-29T09:33:57.437Z,102766.09
2023-01-29T09:36:29.134Z,102766.94
2023-01-29T09:38:58.948Z,102760.16
2023-01-29T09:41:45.059Z,102755.41
2023-01-29T09:44:25.801Z,102765.28
2023-01-29T09:46:57.757Z,102764.06
2023-01-29T09:49:31.976Z,102751.75
2023-01-29T09:52:08.389Z,102744.00
2023-01-29T09:54:52.972Z,102746.44
2023-01-29T09:57:30.722Z,102744.63
2023-01-29T10:00:04.800Z,102741.22
2023-01-29T10:02:56.325Z,102734.47
2023-01-29T10:05:54.561Z,102730.88
2023-01-29T10:09:21.390Z,102733.19
2023-01-29T10:12:03.070Z,102726.47
2023-01-29T10:14:46.923Z,102727.13
2023-01-29T10:17:39.546Z,102729.91
2023-01-29T10:20:43.037Z,102720.38
2023-01-29T10:23:28.294Z,102716.25
2023-01-29T10:26:02.112Z,102714.59
2023-01-29T10:28:35.909Z,102714.41
2023-01-29T10:31:11.539Z,102708.81
2023-01-29T10:34:02.627Z,102704.75
2023-01-29T10:36:41.461Z,102711.88
2023-01-29T10:39:19.017Z,102699.97
2023-01-29T10:42:03.557Z,102702.81
2023-01-29T10:44:47.934Z,102697.41
2023-01-29T10:47:50.562Z,102693.91
2023-01-29T10:50:35.969Z,102692.94
2023-01-29T10:53:23.666Z,102688.66
2023-01-29T10:56:05.803Z,102692.78
2023-01-29T10:58:50.560Z,102684.59
2023-01-29T11:01:19.307Z,102680.06
2023-01-29T11:03:57.388Z,102679.16
2023-01-29T11:06:40.580Z,102662.97
2023-01-29T11:09:25.775Z,102670.78
2023-01-29T11:11:59.469Z,102672.94
2023-01-29T11:14:44.173Z,102659.06
2023-01-29T11:17:18.217Z,102659.09
2023-01-29T11:19:52.975Z,102658.44
2023-01-29T11:22:27.999Z,102661.50
2023-01-29T11:25:20.225Z,102660.13
2023-01-29T11:27:57.787Z,102649.06
2023-01-29T11:30:32.627Z,102654.59
2023-01-29T11:33:11.031Z,102646.09
2023-01-29T11:35:39.937Z,102638.88
2023-01-29T11:38:20.740Z,102636.31
2023-01-29T11:40:49.708Z,102632.47
2023-01-29T11:43:33.278Z,102626.06
2023-01-29T11:46:05.377Z,102623.69
2023-01-29T11:48:43.061Z,102620.53
2023-01-29T11:51:22.819Z,102615.88
2023-01-29T11:53:59.879Z,102609.53
2023-01-29T11:56:35.857Z,102602.50
2023-01-29T11:59:07.536Z,102592.63
2023-01-29T12:01:45.893Z,102604.09
2023-01-29T12:04:22.931Z,102606.03
2023-01-29T12:06:55.864Z,102598.16
2023-01-29T12:09:28.650Z,102592.44
2023-01-29T12:12:17.589Z,102597.50
2023-01-29T12:14:46.417Z,102589.66
2023-01-29T12:17:21.738Z,102580.84
2023-01-29T12:19:56.506Z,102587.91
2023-01-29T12:22:40.264Z,102572.53
2023-01-29T12:25:25.831Z,102568.72
2023-01-29T12:28:05.114Z,102554.84
2023-01-29T12:30:46.268Z,102549.31
2023-01-29T12:33:29.129Z,102547.53
2023-01-29T12:36:11.364Z,102539.91
2023-01-29T12:39:00.737Z,102523.97
2023-01-29T12:41:41.232Z,102529.06
2023-01-29T12:44:25.382Z,102513.88
2023-01-29T12:46:58.662Z,102506.63
2023-01-29T12:49:35.305Z,102497.91
2023-01-29T12:52:15.268Z,102481.47
2023-01-29T12:54:55.854Z,102469.09
2023-01-29T12:57:42.203Z,102468.91
2023-01-29T13:00:20.088Z,102453.72
2023-01-29T13:02:57.009Z,102443.38
2023-01-29T13:05:30.364Z,102439.94
2023-01-29T13:08:14.066Z,102433.38
2023-01-29T13:10:50.442Z,102436.94
2023-01-29T13:13:31.796Z,102424.38
2023-01-29T13:16:07.478Z,102423.03
2023-01-29T13:18:45.454Z,102412.22
2023-01-29T13:21:21.297Z,102408.09
2023-01-29T13:23:58.666Z,102412.09
2023-01-29T13:26:28.309Z,102407.88
2023-01-29T13:29:01.766Z,102403.75
2023-01-29T13:31:33.091Z,102399.41
2023-01-29T13:34:16.592Z,102394.25
2023-01-29T13:36:48.730Z,102398.78
2023-01-29T13:39:27.954Z,102395.16
2023-01-29T13:42:05.168Z,102393.34
2023-01-29T13:44:40.928Z,102391.53
2023-01-29T13:47:22.047Z,102387.31
2023-01-29T13:49:58.411Z,102393.63
2023-01-29T13:52:40.246Z,102379.03
2023-01-29T13:55:25.435Z,102395.44
2023-01-29T13:57:57.625Z,102376.56
2023-01-29T14:01:03.060Z,102371.94
2023-01-29T14:04:05.591Z,102365.41
2023-01-29T14:07:00.552Z,102370.34
2023-01-29T14:10:12.068Z,102360.91
2023-01-29T14:12:45.579Z,102358.19
2023-01-29T14:15:32.301Z,102362.63
2023-01-29T14:18:24.163Z,102358.97
2023-01-29T14:21:01.954Z,102359.38
2023-01-29T14:23:47.146Z,102359.88
2023-01-29T14:26:34.576Z,102342.94
2023-01-29T14:29:32.553Z,102336.63
2023-01-29T14:32:15.771Z,102347.38
2023-01-29T14:34:49.920Z,102345.34
2023-01-29T14:37:28.091Z,102337.44
2023-01-29T14:40:00.362Z,102337.50
2023-01-29T14:42:40.193Z,102330.16
2023-01-29T14:45:24.086Z,102321.19
2023-01-29T14:48:38.846Z,102314.97
2023-01-29T14:51:15.523Z,102317.28
2023-01-29T14:54:18.529Z,102309.34
2023-01-29T14:56:59.651Z,102305.84
2023-01-29T14:59:39.041Z,102300.78
2023-01-29T15:02:20.900Z,102307.81
2023-01-29T15:04:55.092Z,102313.13
2023-01-29T15:07:38.534Z,102312.06
2023-01-29T15:10:22.728Z,102303.09
2023-01-29T15:12:58.759Z,102292.63
2023-01-29T15:15:39.053Z,102296.97
2023-01-29T15:18:15.579Z,102278.97
2023-01-29T15:20:45.653Z,102296.75
2023-01-29T15:23:31.057Z,102280.41
2023-01-29T15:26:12.650Z,102281.72
2023-01-29T15:28:43.511Z,102276.53
2023-01-29T15:31:19.564Z,102262.88
2023-01-29T15:33:53.617Z,102277.16
2023-01-29T15:36:29.903Z,102284.59
2023-01-29T15:39:22.786Z,102278.84
2023-01-29T15:41:54.487Z,102259.47
2023-01-29T15:44:27.531Z,102286.16
2023-01-29T15:47:17.577Z,102262.09
2023-01-29T15:49:51.712Z,102268.75
2023-01-29T15:55:50.432Z,102281.25
2023-01-29T15:58:30.564Z,102274.53
2023-01-29T16:04:06.052Z,102282.00
2023-01-29T16:06:56.111Z,102280.09
2023-01-29T16:12:52.697Z,102272.94
2023-01-29T16:15:36.738Z,102263.88
2023-01-29T16:21:16.054Z,102270.25
2023-01-29T16:23:52.038Z,102252.47
2023-01-29T16:26:31.976Z,102261.91
2023-01-29T16:29:16.759Z,102261.13
2023-01-29T16:31:49.555Z,102253.59
2023-01-29T16:37:34.832Z,102241.13
2023-01-29T16:40:20.304Z,102250.69
2023-01-29T16:42:49.871Z,102245.28
2023-01-29T16:45:33.756Z,102250.34
2023-01-29T16:48:26.642Z,102248.00
2023-01-29T16:51:11.487Z,102242.63
2023-01-29T16:53:40.918Z,102251.25
2023-01-29T16:56:21.657Z,102239.84
2023-01-29T16:59:00.808Z,102240.41
2023-01-29T17:01:35.413Z,102238.47
2023-01-29T17:04:11.971Z,102237.44
2023-01-29T17:06:47.394Z,102240.03
2023-01-29T17:09:22.676Z,102227.84
2023-01-29T17:12:02.932Z,102230.34
2023-01-29T17:14:35.717Z,102236.09
2023-01-29T17:17:30.372Z,102228.63
2023-01-29T17:20:08.617Z,102210.56
2023-01-29T17:22:58.857Z,102211.66
2023-01-29T17:25:29.720Z,102203.50
2023-01-29T17:28:01.367Z,102203.88
2023-01-29T17:30:35.272Z,102207.09
2023-01-29T17:33:15.868Z,102195.44
2023-01-29T17:35:46.979Z,102199.31
2023-01-29T17:38:25.910Z,102186.78
2023-01-29T17:40:59.969Z,102188.72
2023-01-29T17:43:43.196Z,102185.03
2023-01-29T17:46:16.172Z,102194.44
2023-01-29T17:48:49.229Z,102182.53
2023-01-29T17:51:25.117Z,102171.44
2023-01-29T17:54:13.142Z,102168.69
2023-01-29T17:56:42.603Z,102167.31
2023-01-29T17:59:17.952Z,102162.41
2023-01-29T18:01:47.173Z,102164.47
2023-01-29T18:04:20.057Z,102163.19
2023-01-29T18:06:51.817Z,102149.69
2023-01-29T18:09:22.590Z,102142.81
2023-01-29T18:11:53.677Z,102140.13
2023-01-29T18:14:22.688Z,102145.88
2023-01-29T18:16:53.505Z,102139.44
2023-01-29T18:19:35.314Z,102141.97
2023-01-29T18:22:16.065Z,102120.63
2023-01-29T18:24:47.136Z,102121.44
2023-01-29T18:27:16.365Z,102115.63
2023-01-29T18:29:45.058Z,102123.66
2023-01-29T18:32:14.200Z,102104.00
2023-01-29T18:34:44.674Z,102102.72
2023-01-29T18:37:13.866Z,102089.00
2023-01-29T18:39:42.714Z,102083.63
2023-01-29T18:42:11.481Z,102079.94
2023-01-29T18:44:42.228Z,102075.25
2023-01-29T18:47:11.431Z,102078.84
2023-01-29T18:49:42.635Z,102063.97
2023-01-29T18:52:14.239Z,102060.84
2023-01-29T18:54:47.520Z,102058.66
2023-01-29T18:58:28.974Z,102064.06
2023-01-29T19:00:15.870Z,102063.31
2023-01-29T19:02:54.046Z,102059.75
2023-01-29T19:05:24.925Z,102062.88
2023-01-29T19:07:56.345Z,102068.50
2023-01-29T19:10:25.439Z,102075.13
2023-01-29T19:13:06.603Z,102062.34
2023-01-29T19:15:39.219Z,102058.44
2023-01-29T19:18:14.698Z,102049.91
2023-01-29T19:20:44.127Z,102058.38
2023-01-29T19:23:19.500Z,102040.88
2023-01-29T19:25:48.732Z,102032.28
2023-01-29T19:28:24.022Z,102031.38
2023-01-29T19:30:54.658Z,102025.94
2023-01-29T19:33:24.259Z,102038.47
2023-01-29T19:35:56.718Z,102027.69
2023-01-29T19:38:34.209Z,102032.13
2023-01-29T19:41:08.553Z,102042.78
2023-01-29T19:43:40.643Z,102035.72
2023-01-29T19:46:11.093Z,102041.81
2023-01-29T19:48:40.598Z,102038.16
2023-01-29T19:51:12.547Z,102030.94
2023-01-29T19:53:46.164Z,102042.25
2023-01-29T19:56:21.437Z,102048.72
2023-01-29T19:58:57.508Z,102014.78
2023-01-29T20:01:32.921Z,102018.22
2023-01-29T20:04:09.251Z,102028.47
2023-01-29T20:06:39.059Z,102023.53
2023-01-29T20:09:10.285Z,102005.44
2023-01-29T20:11:47.809Z,102008.59
2023-01-29T20:14:17.674Z,101991.75
2023-01-29T20:16:48.020Z,101987.19
2023-01-29T20:19:20.678Z,101985.31
2023-01-29T20:21:53.093Z,102013.28
2023-01-29T20:24:28.449Z,102004.25
2023-01-29T20:27:09.156Z,102005.06
2023-01-29T20:29:54.875Z,101992.84
2023-01-29T20:32:24.141Z,101985.53
2023-01-29T20:34:55.565Z,101991.66
2023-01-29T20:37:32.715Z,102008.34
2023-01-29T20:40:04.457Z,102001.28
2023-01-29T20:45:22.294Z,102008.41
2023-01-29T20:47:52.047Z,101994.06
2023-01-29T20:50:21.225Z,101993.09
2023-01-29T20:52:57.608Z,101993.00
2023-01-29T20:55:28.580Z,101998.44
2023-01-29T20:58:06.368Z,101993.72
2023-01-29T21:00:36.311Z,101990.75
2023-01-29T21:03:08.859Z,101998.50
2023-01-29T21:05:37.820Z,101993.19
2023-01-29T21:08:07.188Z,101990.06
2023-01-29T21:10:45.242Z,101987.41
2023-01-29T21:13:14.309Z,101995.75
2023-01-29T21:15:45.069Z,101983.88
2023-01-29T21:18:14.349Z,101980.81
2023-01-29T21:20:43.484Z,101978.25
2023-01-29T21:23:12.683Z,101996.00
2023-01-29T21:25:46.288Z,102000.25
2023-01-29T21:28:19.269Z,101993.47
2023-01-29T21:30:49.549Z,101966.50
2023-01-29T21:33:18.212Z,101954.78
2023-01-29T21:35:46.941Z,101940.19
2023-01-29T21:38:15.840Z,101919.09
2023-01-29T21:40:46.701Z,101917.91
2023-01-29T21:43:15.740Z,101902.22
2023-01-29T21:45:46.233Z,101876.44
2023-01-29T21:48:15.414Z,101880.88
2023-01-29T21:50:44.268Z,101880.50
2023-01-29T21:53:13.459Z,101858.75
2023-01-29T21:55:42.249Z,101853.06
2023-01-29T21:58:14.663Z,101849.34
2023-01-29T22:00:43.727Z,101867.63
2023-01-29T22:03:12.282Z,101867.25
2023-01-29T22:05:41.444Z,101850.47
2023-01-29T22:08:10.263Z,101857.69
2023-01-29T22:10:40.227Z,101853.13
2023-01-29T22:13:09.526Z,101852.34
2023-01-29T22:15:39.526Z,101843.59
2023-01-29T22:18:08.050Z,101842.75
2023-01-29T22:20:36.730Z,101838.09
2023-01-29T22:23:05.559Z,101840.44
2023-01-29T22:25:34.310Z,101843.16
2023-01-29T22:28:03.362Z,101841.84
2023-01-29T22:30:33.664Z,101839.09
2023-01-29T22:33:04.529Z,101829.69
2023-01-29T22:35:33.754Z,101830.25
2023-01-29T22:38:02.290Z,101819.84
2023-01-29T22:40:30.898Z,101812.97
2023-01-29T22:43:00.206Z,101829.25
2023-01-29T22:45:28.817Z,101816.09
2023-01-29T22:47:58.058Z,101807.59
2023-01-29T22:50:30.103Z,101824.56
2023-01-29T22:52:59.178Z,101822.34
2023-01-29T22:55:27.994Z,101831.97
2023-01-29T22:57:56.763Z,101830.22
2023-01-29T23:00:25.780Z,101809.66
2023-01-29T23:02:54.324Z,101796.03
2023-01-29T23:05:22.920Z,101810.38
2023-01-29T23:07:53.165Z,101795.38
2023-01-29T23:10:22.612Z,101791.31
2023-01-29T23:12:51.520Z,101789.69
2023-01-29T23:15:20.395Z,101797.13
2023-01-29T23:17:49.198Z,101785.41
2023-01-29T23:20:20.602Z,101787.59
2023-01-29T23:22:49.297Z,101778.56
2023-01-29T23:25:20.241Z,101779.31
2023-01-29T23:27:48.436Z,101762.44
2023-01-29T23:30:17.644Z,101759.44
2023-01-29T23:32:46.566Z,101761.84
2023-01-29T23:35:15.388Z,101741.16
2023-01-29T23:37:43.965Z,101752.19
2023-01-29T23:40:13.787Z,101752.63
2023-01-29T23:42:44.776Z,101751.91
2023-01-29T23:45:13.381Z,101761.38
2023-01-29T23:47:43.686Z,101741.56
2023-01-29T23:50:14.768Z,101754.03
2023-01-29T23:52:43.502Z,101761.84
2023-01-29T23:55:12.455Z,101771.59
2023-01-29T23:57:42.921Z,101767.97
